Strona główna
METAR-TAF:

METAR-TAF

Lotnisko :

Gombe Lawanti International Airport

Gombe, Nigeria

Szerokość geograficzna: 10-18-19N, Długość geograficzna: 10-54-31E, wysokość: 505 m

METAR: brakujący

czas: 16:02 (15:02 UTC)

Prognoza

Raport powstał 4 godziny i 2 minut temu, godzina 11:00 UTC
Prognoza ważna od 21 godzina 12 UTC do 22 godzina 18 UTC
Wiatr 8 kt od zachodnio-południowy zachód
Widzialność 10 km lub więcej
Brak chmur poniżej 1500 m i brak chmur cumulonimbus
Przejściowo
od 21 godzina 13 UTC do 21 godzina 18 UTC
Rozproszone chmury na wysokości 1300 ft
Mało chmury na wysokości 1900 ft, Cumulonimbus.
burza,

TAF: DNGO 211100Z 2112/2218 24008KT CAVOK TEMPO 2113/2118 TS SCT013 FEW019CB

Obserwacja i prognoza pogody dla ponad 4000 lotnisk (raport METAR i TAF).

Dostępne stacje oznaczono żółtymi i czerwonymi punktami na mapie.

Najedź kursorem aby zobaczyć nazwę stacji.

Kliknij aby zobaczyć obserwacje i prognozy pogody.

Aby zmienić mapę: kliknij na zielony przycisk z czarnym krzyżykiem, aby powiększyć; na zielony przycisk z myślnikiem, aby pomniejszyć; na zielone strzałki, aby przejść do map sąsiednich.


METAR-TAF: